Gulf — V2BB5 — position and weather

sailwx.info

Track history (hours):
 
Tides and Currents Weather Stations Pressure Air Temp Water Temp Dewpoint Dewpoint Depression Visibility Wind Speed Wind Dir Waves Ship Positions

Gulf

Last reported at 2014-Aug-25 05:28 UTC. Time now 2014-Sep-03 07:26 UTC.
Position N 40°60' E 028°60'.
Warning: this ship's position is 9 days out of date.

Length 96 m; draft 3 m.

Type: Cargo ship. MMSI: 304320000.

Date/timePositionNaut miles runAvg speedWind from/ knotsBaromVisibWave heightAir tempDewpointWater temp
2014-Aug-25 05:28N 40°60' E 028°60'6 7.2
2014-Aug-25 04:33N 40°55' E 029°05'6 4.4
2014-Aug-25 03:16N 40°52' E 029°12'0 0.1
2014-Aug-25 02:28N 40°52' E 029°12'0 0.1
2014-Aug-25 01:28N 40°52' E 029°12'0 0.1
2014-Aug-25 00:28N 40°52' E 029°12'0 0.1
2014-Aug-24 23:28N 40°52' E 029°12'0 0.1
2014-Aug-24 22:16N 40°52' E 029°12'0 0.0
2014-Aug-24 21:28N 40°52' E 029°12'0 0.1
2014-Aug-24 20:28N 40°52' E 029°12'0 0.1
2014-Aug-24 19:28N 40°52' E 029°12'0 0.1
2014-Aug-24 18:33N 40°52' E 029°12'3 2.3
2014-Aug-24 17:22N 40°50' E 029°14'0 0.0
2014-Aug-24 16:28N 40°50' E 029°15'1 1.3
2014-Aug-24 15:33N 40°49' E 029°14'8 8.0
2014-Aug-24 14:33N 40°41' E 029°11'6 6.0
2014-Aug-24 13:33N 40°47' E 029°13'4 4.1
2014-Aug-24 12:33N 40°43' E 029°12'8 8.5
2014-Aug-24 11:33N 40°51' E 029°16'1 1.1
2014-Aug-24 10:33N 40°51' E 029°17'0 0.0
2014-Aug-24 09:33N 40°51' E 029°17'0 0.0
2014-Aug-24 08:33N 40°51' E 029°17'0 0.0
2014-Aug-24 07:33N 40°51' E 029°17'0 0.0
2014-Aug-24 06:33N 40°51' E 029°17'0 0.0
2014-Aug-24 05:33N 40°51' E 029°17'0 0.0
2014-Aug-24 04:33N 40°51' E 029°17'0 0.0
2014-Aug-24 03:33N 40°51' E 029°17'0 0.0
2014-Aug-24 02:33N 40°51' E 029°17'0 0.0
2014-Aug-24 01:33N 40°51' E 029°17'0 0.0
2014-Aug-24 00:33N 40°51' E 029°17'0 0.0
2014-Aug-23 23:33N 40°51' E 029°17'0 0.0
2014-Aug-23 22:33N 40°51' E 029°17'0 0.0
2014-Aug-23 21:33N 40°51' E 029°17'0 0.0
2014-Aug-23 20:33N 40°51' E 029°17'0 0.0
2014-Aug-23 19:33N 40°51' E 029°17'0 0.0
2014-Aug-23 03:33N 40°51' E 029°17'0 0.0
2014-Aug-23 02:33N 40°51' E 029°17'0 0.0
2014-Aug-23 01:34N 40°51' E 029°17'0 0.0
2014-Aug-23 00:33N 40°51' E 029°17'0 0.0
2014-Aug-22 23:33N 40°51' E 029°17'0 0.0
2014-Aug-22 22:33N 40°51' E 029°17'0 0.0
2014-Aug-22 21:33N 40°51' E 029°17'0 0.0
2014-Aug-22 20:33N 40°51' E 029°17'0 0.0
2014-Aug-22 19:33N 40°51' E 029°17'0 0.0
2014-Aug-22 18:34N 40°51' E 029°17'0 0.0
2014-Aug-22 17:33N 40°51' E 029°17'0 0.0
2014-Aug-22 16:34N 40°51' E 029°17'0 0.0
2014-Aug-22 15:34N 40°51' E 029°17'0 0.0
2014-Aug-22 14:34N 40°51' E 029°17'0 0.0
2014-Aug-22 13:33N 40°51' E 029°17'0 0.0
2014-Aug-22 12:33N 40°51' E 029°17'0 0.0
2014-Aug-22 11:33N 40°51' E 029°17'0 0.0
2014-Aug-22 10:33N 40°51' E 029°17'0 0.0
2014-Aug-22 09:33N 40°51' E 029°17'0 0.0
2014-Aug-22 08:33N 40°51' E 029°17'0 0.0
2014-Aug-22 07:34N 40°51' E 029°17'0 0.0
2014-Aug-22 06:33N 40°51' E 029°17'0 0.0
2014-Aug-22 05:33N 40°51' E 029°17'0 0.0
2014-Aug-22 04:33N 40°51' E 029°17'0 0.0
2014-Aug-22 03:33N 40°51' E 029°17'0 0.0
2014-Aug-22 02:33N 40°51' E 029°17'0 0.0
2014-Aug-22 01:33N 40°51' E 029°17'0 0.0
2014-Aug-22 00:33N 40°51' E 029°17'0 0.0
2014-Aug-21 23:33N 40°51' E 029°17'0 0.0
2014-Aug-21 22:33N 40°51' E 029°17'0 0.0
2014-Aug-21 21:33N 40°51' E 029°17'0 0.0
2014-Aug-21 20:33N 40°51' E 029°17'0 0.0
2014-Aug-21 19:33N 40°51' E 029°17'0 0.0
2014-Aug-21 18:33N 40°51' E 029°17'0 0.0
2014-Aug-21 17:33N 40°51' E 029°17'0 0.0
2014-Aug-21 16:33N 40°51' E 029°17'0 0.0
2014-Aug-21 15:33N 40°51' E 029°17'0 0.0
2014-Aug-21 14:33N 40°51' E 029°17'0 0.0
2014-Aug-21 13:33N 40°51' E 029°17'0 0.0
2014-Aug-21 12:33N 40°51' E 029°17'0 0.0
2014-Aug-21 11:33N 40°51' E 029°17'0 0.0
2014-Aug-21 10:33N 40°51' E 029°17'0 0.0
2014-Aug-21 09:33N 40°51' E 029°17'0 0.0
2014-Aug-21 08:33N 40°51' E 029°17'0 0.0
2014-Aug-21 07:33N 40°51' E 029°17'0 0.0
2014-Aug-21 06:33N 40°51' E 029°17'0 0.0
2014-Aug-21 05:33N 40°51' E 029°17'0 0.0
2014-Aug-21 04:33N 40°51' E 029°17'0 0.0
2014-Aug-21 03:33N 40°51' E 029°17'0 0.0
2014-Aug-21 02:33N 40°51' E 029°17'0 0.0
2014-Aug-21 01:33N 40°51' E 029°17'0 0.0
2014-Aug-21 00:33N 40°51' E 029°17'0 0.0
2014-Aug-20 23:33N 40°51' E 029°17'0 0.0
2014-Aug-20 22:33N 40°51' E 029°17'0 0.0
2014-Aug-20 21:33N 40°51' E 029°17'0 0.0
2014-Aug-20 20:33N 40°51' E 029°17'0 0.0
2014-Aug-20 19:33N 40°51' E 029°17'0 0.0
2014-Aug-20 18:33N 40°51' E 029°17'0 0.0
2014-Aug-20 17:33N 40°51' E 029°17'0 0.0
2014-Aug-20 16:33N 40°51' E 029°17'0 0.0
2014-Aug-20 15:17N 40°51' E 029°17'0 0.0
2014-Aug-20 14:29N 40°51' E 029°17'0 0.0
2014-Aug-20 13:23N 40°51' E 029°17'0 0.0
2014-Aug-20 12:29N 40°51' E 029°17'0 0.0
2014-Aug-20 11:29N 40°51' E 029°17'0 0.0
2014-Aug-20 10:29N 40°51' E 029°17'0 0.0
2014-Aug-20 09:17N 40°51' E 029°17'0 0.0
2014-Aug-20 08:23N 40°51' E 029°17'0 0.0
2014-Aug-20 07:23N 40°51' E 029°17'0 0.0
2014-Aug-20 06:29N 40°51' E 029°17'0 0.0
2014-Aug-20 05:29N 40°51' E 029°17'0 0.0
2014-Aug-20 04:29N 40°51' E 029°17'0 0.0
2014-Aug-20 03:23N 40°51' E 029°17'0 0.0
2014-Aug-20 02:29N 40°51' E 029°17'0 0.0
2014-Aug-20 01:29N 40°51' E 029°17'0 0.0
2014-Aug-20 00:29N 40°51' E 029°17'0 0.0
2014-Aug-19 23:29N 40°51' E 029°17'0 0.0
2014-Aug-19 22:23N 40°51' E 029°17'0 0.0
2014-Aug-19 21:29N 40°51' E 029°17'0 0.0
2014-Aug-19 20:17N 40°51' E 029°17'0 0.0
2014-Aug-19 19:11N 40°51' E 029°17'0 0.0
2014-Aug-19 18:29N 40°51' E 029°17'0 0.0
2014-Aug-19 17:29N 40°51' E 029°17'0 0.0
2014-Aug-19 16:23N 40°51' E 029°17'0 0.0
2014-Aug-19 15:29N 40°51' E 029°17'0 0.0
2014-Aug-19 14:29N 40°51' E 029°17'0 0.0
2014-Aug-19 13:29N 40°51' E 029°17'0 0.0
2014-Aug-19 12:29N 40°51' E 029°17'0 0.0
2014-Aug-19 11:17N 40°51' E 029°17'0 0.0
2014-Aug-19 10:23N 40°51' E 029°17'0 0.0
2014-Aug-19 09:23N 40°51' E 029°17'0 0.0
2014-Aug-19 08:29N 40°51' E 029°17'0 0.0
2014-Aug-19 07:29N 40°51' E 029°17'0 0.0
2014-Aug-19 06:23N 40°51' E 029°17'0 0.0
2014-Aug-19 05:23N 40°51' E 029°17'0 0.0
2014-Aug-19 04:23N 40°51' E 029°17'0 0.0
2014-Aug-19 03:29N 40°51' E 029°17'0 0.0
2014-Aug-19 02:29N 40°51' E 029°17'0 0.0
2014-Aug-19 01:29N 40°51' E 029°17'0 0.0
2014-Aug-19 00:29N 40°51' E 029°17'0 0.0
2014-Aug-18 23:23N 40°51' E 029°17'0 0.0
2014-Aug-18 22:29N 40°51' E 029°17'0 0.0
2014-Aug-18 21:23N 40°51' E 029°17'0 0.0
2014-Aug-18 20:29N 40°51' E 029°17'0 0.0
2014-Aug-18 19:23N 40°51' E 029°17'0 0.0
2014-Aug-18 18:29N 40°51' E 029°17'0 0.0
2014-Aug-18 17:17N 40°51' E 029°17'0 0.0
2014-Aug-18 16:29N 40°51' E 029°17'0 0.0
2014-Aug-18 15:29N 40°51' E 029°17'0 0.0
2014-Aug-18 14:29N 40°51' E 029°17'0 0.0
2014-Aug-18 13:29N 40°51' E 029°17'0 0.0
2014-Aug-18 12:29N 40°51' E 029°17'0 0.0
2014-Aug-18 11:23N 40°51' E 029°17'0 0.0
2014-Aug-18 10:23N 40°51' E 029°17'0 0.0
2014-Aug-18 09:29N 40°51' E 029°17'0 0.0
2014-Aug-18 08:11N 40°51' E 029°17'0 0.0
2014-Aug-18 07:29N 40°51' E 029°17'0 0.0
2014-Aug-18 06:29N 40°51' E 029°17'0 0.0
2014-Aug-18 05:23N 40°51' E 029°17'0 0.0
2014-Aug-18 04:29N 40°51' E 029°17'0 0.0
2014-Aug-18 03:29N 40°51' E 029°17'0 0.0
2014-Aug-18 02:29N 40°51' E 029°17'0 0.0
2014-Aug-18 01:29N 40°51' E 029°17'0 0.0
2014-Aug-18 00:23N 40°51' E 029°17'0 0.0
2014-Aug-17 18:29N 40°51' E 029°17'0 0.0
2014-Aug-17 17:29N 40°51' E 029°17'0 0.0
2014-Aug-17 16:29N 40°51' E 029°17'0 0.0
2014-Aug-17 15:29N 40°51' E 029°17'0 0.0
2014-Aug-17 14:23N 40°51' E 029°17'0 0.0
2014-Aug-17 13:17N 40°51' E 029°17'0 0.0
2014-Aug-17 12:29N 40°51' E 029°17'0 0.0
2014-Aug-17 11:29N 40°51' E 029°17'0 0.0
2014-Aug-17 10:29N 40°51' E 029°17'0 0.0
2014-Aug-17 09:29N 40°51' E 029°17'0 0.0
2014-Aug-17 08:29N 40°51' E 029°17'0 0.0
2014-Aug-17 07:29N 40°51' E 029°17'0 0.0
2014-Aug-17 06:29N 40°51' E 029°17'0 0.0
2014-Aug-17 05:17N 40°51' E 029°17'0 0.0
2014-Aug-17 04:29N 40°51' E 029°17'0 0.0
2014-Aug-17 03:29N 40°51' E 029°17'0 0.0
2014-Aug-17 02:29N 40°51' E 029°17'0 0.0
2014-Aug-17 01:23N 40°51' E 029°17'0 0.0
2014-Aug-17 00:29N 40°51' E 029°17'0 0.0
2014-Aug-16 23:29N 40°51' E 029°17'0 0.0
2014-Aug-16 22:29N 40°51' E 029°17'0 0.0
2014-Aug-16 21:29N 40°51' E 029°17'0 0.0
2014-Aug-16 20:29N 40°51' E 029°17'0 0.0
2014-Aug-16 19:29N 40°51' E 029°17'0 0.0
2014-Aug-16 18:29N 40°51' E 029°17'0 0.0
2014-Aug-16 17:17N 40°51' E 029°17'0 0.0
2014-Aug-16 16:11N 40°51' E 029°17'0 0.0
2014-Aug-16 15:29N 40°51' E 029°17'0 0.0
2014-Aug-16 14:29N 40°51' E 029°17'0 0.0
2014-Aug-16 13:23N 40°51' E 029°17'0 0.0
2014-Aug-16 12:29N 40°51' E 029°17'0 0.0
2014-Aug-16 11:29N 40°51' E 029°17'0 0.0
2014-Aug-16 10:29N 40°51' E 029°17'0 0.0
2014-Aug-16 09:29N 40°51' E 029°17'0 0.0
2014-Aug-16 08:29N 40°51' E 029°17'0 0.0
2014-Aug-16 07:29N 40°51' E 029°17'0 0.0
2014-Aug-16 06:17N 40°51' E 029°17'0 0.0
2014-Aug-16 05:23N 40°51' E 029°17'0 0.0
2014-Aug-16 04:23N 40°51' E 029°17'0 0.0
2014-Aug-16 03:23N 40°51' E 029°17'0 0.0
2014-Aug-16 02:29N 40°51' E 029°17'0 0.0
2014-Aug-16 01:29N 40°51' E 029°17'0 0.0
2014-Aug-16 00:29N 40°51' E 029°17'0 0.0
2014-Aug-15 23:29N 40°51' E 029°17'0 0.0
2014-Aug-15 22:29N 40°51' E 029°17'0 0.0
2014-Aug-15 21:23N 40°51' E 029°17'0 0.0
2014-Aug-15 20:29N 40°51' E 029°17'0 0.0
2014-Aug-15 19:29N 40°51' E 029°17'0 0.0
2014-Aug-15 18:29N 40°51' E 029°17'0 0.0
2014-Aug-15 17:23N 40°51' E 029°17'0 0.0
2014-Aug-15 16:29N 40°51' E 029°17'0 0.0
2014-Aug-15 15:23N 40°51' E 029°17'0 0.0
2014-Aug-15 14:23N 40°51' E 029°17'0 0.0
2014-Aug-15 13:29N 40°51' E 029°17'0 0.0
2014-Aug-15 12:23N 40°51' E 029°17'  
Track history (hours):
 
Tides and Currents Weather Stations Pressure Air Temp Water Temp Dewpoint Dewpoint Depression Visibility Wind Speed Wind Dir Waves Ship Positions

Gulf

Last reported at 2014-Aug-25 05:28 UTC. Time now 2014-Sep-03 07:26 UTC.
Position N 40°60' E 028°60'.
Warning: this ship's position is 9 days out of date.

Length 96 m; draft 3 m.

Type: Cargo ship. MMSI: 304320000.

Date/timePositionNaut miles runAvg speedWind from/ knotsBaromVisibWave heightAir tempDewpointWater temp
2014-Aug-25 05:28N 40°60' E 028°60'6 7.2
2014-Aug-25 04:33N 40°55' E 029°05'6 4.4
2014-Aug-25 03:16N 40°52' E 029°12'0 0.1
2014-Aug-25 02:28N 40°52' E 029°12'0 0.1
2014-Aug-25 01:28N 40°52' E 029°12'0 0.1
2014-Aug-25 00:28N 40°52' E 029°12'0 0.1
2014-Aug-24 23:28N 40°52' E 029°12'0 0.1
2014-Aug-24 22:16N 40°52' E 029°12'0 0.0
2014-Aug-24 21:28N 40°52' E 029°12'0 0.1
2014-Aug-24 20:28N 40°52' E 029°12'0 0.1
2014-Aug-24 19:28N 40°52' E 029°12'0 0.1
2014-Aug-24 18:33N 40°52' E 029°12'3 2.3
2014-Aug-24 17:22N 40°50' E 029°14'0 0.0
2014-Aug-24 16:28N 40°50' E 029°15'1 1.3
2014-Aug-24 15:33N 40°49' E 029°14'8 8.0
2014-Aug-24 14:33N 40°41' E 029°11'6 6.0
2014-Aug-24 13:33N 40°47' E 029°13'4 4.1
2014-Aug-24 12:33N 40°43' E 029°12'8 8.5
2014-Aug-24 11:33N 40°51' E 029°16'1 1.1
2014-Aug-24 10:33N 40°51' E 029°17'0 0.0
2014-Aug-24 09:33N 40°51' E 029°17'0 0.0
2014-Aug-24 08:33N 40°51' E 029°17'0 0.0
2014-Aug-24 07:33N 40°51' E 029°17'0 0.0
2014-Aug-24 06:33N 40°51' E 029°17'0 0.0
2014-Aug-24 05:33N 40°51' E 029°17'0 0.0
2014-Aug-24 04:33N 40°51' E 029°17'0 0.0
2014-Aug-24 03:33N 40°51' E 029°17'0 0.0
2014-Aug-24 02:33N 40°51' E 029°17'0 0.0
2014-Aug-24 01:33N 40°51' E 029°17'0 0.0
2014-Aug-24 00:33N 40°51' E 029°17'0 0.0
2014-Aug-23 23:33N 40°51' E 029°17'0 0.0
2014-Aug-23 22:33N 40°51' E 029°17'0 0.0
2014-Aug-23 21:33N 40°51' E 029°17'0 0.0
2014-Aug-23 20:33N 40°51' E 029°17'0 0.0
2014-Aug-23 19:33N 40°51' E 029°17'0 0.0
2014-Aug-23 03:33N 40°51' E 029°17'0 0.0
2014-Aug-23 02:33N 40°51' E 029°17'0 0.0
2014-Aug-23 01:34N 40°51' E 029°17'0 0.0
2014-Aug-23 00:33N 40°51' E 029°17'0 0.0
2014-Aug-22 23:33N 40°51' E 029°17'0 0.0
2014-Aug-22 22:33N 40°51' E 029°17'0 0.0
2014-Aug-22 21:33N 40°51' E 029°17'0 0.0
2014-Aug-22 20:33N 40°51' E 029°17'0 0.0
2014-Aug-22 19:33N 40°51' E 029°17'0 0.0
2014-Aug-22 18:34N 40°51' E 029°17'0 0.0
2014-Aug-22 17:33N 40°51' E 029°17'0 0.0
2014-Aug-22 16:34N 40°51' E 029°17'0 0.0
2014-Aug-22 15:34N 40°51' E 029°17'0 0.0
2014-Aug-22 14:34N 40°51' E 029°17'0 0.0
2014-Aug-22 13:33N 40°51' E 029°17'0 0.0
2014-Aug-22 12:33N 40°51' E 029°17'0 0.0
2014-Aug-22 11:33N 40°51' E 029°17'0 0.0
2014-Aug-22 10:33N 40°51' E 029°17'0 0.0
2014-Aug-22 09:33N 40°51' E 029°17'0 0.0
2014-Aug-22 08:33N 40°51' E 029°17'0 0.0
2014-Aug-22 07:34N 40°51' E 029°17'0 0.0
2014-Aug-22 06:33N 40°51' E 029°17'0 0.0
2014-Aug-22 05:33N 40°51' E 029°17'0 0.0
2014-Aug-22 04:33N 40°51' E 029°17'0 0.0
2014-Aug-22 03:33N 40°51' E 029°17'0 0.0
2014-Aug-22 02:33N 40°51' E 029°17'0 0.0
2014-Aug-22 01:33N 40°51' E 029°17'0 0.0
2014-Aug-22 00:33N 40°51' E 029°17'0 0.0
2014-Aug-21 23:33N 40°51' E 029°17'0 0.0
2014-Aug-21 22:33N 40°51' E 029°17'0 0.0
2014-Aug-21 21:33N 40°51' E 029°17'0 0.0
2014-Aug-21 20:33N 40°51' E 029°17'0 0.0
2014-Aug-21 19:33N 40°51' E 029°17'0 0.0
2014-Aug-21 18:33N 40°51' E 029°17'0 0.0
2014-Aug-21 17:33N 40°51' E 029°17'0 0.0
2014-Aug-21 16:33N 40°51' E 029°17'0 0.0
2014-Aug-21 15:33N 40°51' E 029°17'0 0.0
2014-Aug-21 14:33N 40°51' E 029°17'0 0.0
2014-Aug-21 13:33N 40°51' E 029°17'0 0.0
2014-Aug-21 12:33N 40°51' E 029°17'0 0.0
2014-Aug-21 11:33N 40°51' E 029°17'0 0.0
2014-Aug-21 10:33N 40°51' E 029°17'0 0.0
2014-Aug-21 09:33N 40°51' E 029°17'0 0.0
2014-Aug-21 08:33N 40°51' E 029°17'0 0.0
2014-Aug-21 07:33N 40°51' E 029°17'0 0.0
2014-Aug-21 06:33N 40°51' E 029°17'0 0.0
2014-Aug-21 05:33N 40°51' E 029°17'0 0.0
2014-Aug-21 04:33N 40°51' E 029°17'0 0.0
2014-Aug-21 03:33N 40°51' E 029°17'0 0.0
2014-Aug-21 02:33N 40°51' E 029°17'0 0.0
2014-Aug-21 01:33N 40°51' E 029°17'0 0.0
2014-Aug-21 00:33N 40°51' E 029°17'0 0.0
2014-Aug-20 23:33N 40°51' E 029°17'0 0.0
2014-Aug-20 22:33N 40°51' E 029°17'0 0.0
2014-Aug-20 21:33N 40°51' E 029°17'0 0.0
2014-Aug-20 20:33N 40°51' E 029°17'0 0.0
2014-Aug-20 19:33N 40°51' E 029°17'0 0.0
2014-Aug-20 18:33N 40°51' E 029°17'0 0.0
2014-Aug-20 17:33N 40°51' E 029°17'0 0.0
2014-Aug-20 16:33N 40°51' E 029°17'0 0.0
2014-Aug-20 15:17N 40°51' E 029°17'0 0.0
2014-Aug-20 14:29N 40°51' E 029°17'0 0.0
2014-Aug-20 13:23N 40°51' E 029°17'0 0.0
2014-Aug-20 12:29N 40°51' E 029°17'0 0.0
2014-Aug-20 11:29N 40°51' E 029°17'0 0.0
2014-Aug-20 10:29N 40°51' E 029°17'0 0.0
2014-Aug-20 09:17N 40°51' E 029°17'0 0.0
2014-Aug-20 08:23N 40°51' E 029°17'0 0.0
2014-Aug-20 07:23N 40°51' E 029°17'0 0.0
2014-Aug-20 06:29N 40°51' E 029°17'0 0.0
2014-Aug-20 05:29N 40°51' E 029°17'0 0.0
2014-Aug-20 04:29N 40°51' E 029°17'0 0.0
2014-Aug-20 03:23N 40°51' E 029°17'0 0.0
2014-Aug-20 02:29N 40°51' E 029°17'0 0.0
2014-Aug-20 01:29N 40°51' E 029°17'0 0.0
2014-Aug-20 00:29N 40°51' E 029°17'0 0.0
2014-Aug-19 23:29N 40°51' E 029°17'0 0.0
2014-Aug-19 22:23N 40°51' E 029°17'0 0.0
2014-Aug-19 21:29N 40°51' E 029°17'0 0.0
2014-Aug-19 20:17N 40°51' E 029°17'0 0.0
2014-Aug-19 19:11N 40°51' E 029°17'0 0.0
2014-Aug-19 18:29N 40°51' E 029°17'0 0.0
2014-Aug-19 17:29N 40°51' E 029°17'0 0.0
2014-Aug-19 16:23N 40°51' E 029°17'0 0.0
2014-Aug-19 15:29N 40°51' E 029°17'0 0.0
2014-Aug-19 14:29N 40°51' E 029°17'0 0.0
2014-Aug-19 13:29N 40°51' E 029°17'0 0.0
2014-Aug-19 12:29N 40°51' E 029°17'0 0.0
2014-Aug-19 11:17N 40°51' E 029°17'0 0.0
2014-Aug-19 10:23N 40°51' E 029°17'0 0.0
2014-Aug-19 09:23N 40°51' E 029°17'0 0.0
2014-Aug-19 08:29N 40°51' E 029°17'0 0.0
2014-Aug-19 07:29N 40°51' E 029°17'0 0.0
2014-Aug-19 06:23N 40°51' E 029°17'0 0.0
2014-Aug-19 05:23N 40°51' E 029°17'0 0.0
2014-Aug-19 04:23N 40°51' E 029°17'0 0.0
2014-Aug-19 03:29N 40°51' E 029°17'0 0.0
2014-Aug-19 02:29N 40°51' E 029°17'0 0.0
2014-Aug-19 01:29N 40°51' E 029°17'0 0.0
2014-Aug-19 00:29N 40°51' E 029°17'0 0.0
2014-Aug-18 23:23N 40°51' E 029°17'0 0.0
2014-Aug-18 22:29N 40°51' E 029°17'0 0.0
2014-Aug-18 21:23N 40°51' E 029°17'0 0.0
2014-Aug-18 20:29N 40°51' E 029°17'0 0.0
2014-Aug-18 19:23N 40°51' E 029°17'0 0.0
2014-Aug-18 18:29N 40°51' E 029°17'0 0.0
2014-Aug-18 17:17N 40°51' E 029°17'0 0.0
2014-Aug-18 16:29N 40°51' E 029°17'0 0.0
2014-Aug-18 15:29N 40°51' E 029°17'0 0.0
2014-Aug-18 14:29N 40°51' E 029°17'0 0.0
2014-Aug-18 13:29N 40°51' E 029°17'0 0.0
2014-Aug-18 12:29N 40°51' E 029°17'0 0.0
2014-Aug-18 11:23N 40°51' E 029°17'0 0.0
2014-Aug-18 10:23N 40°51' E 029°17'0 0.0
2014-Aug-18 09:29N 40°51' E 029°17'0 0.0
2014-Aug-18 08:11N 40°51' E 029°17'0 0.0
2014-Aug-18 07:29N 40°51' E 029°17'0 0.0
2014-Aug-18 06:29N 40°51' E 029°17'0 0.0
2014-Aug-18 05:23N 40°51' E 029°17'0 0.0
2014-Aug-18 04:29N 40°51' E 029°17'0 0.0
2014-Aug-18 03:29N 40°51' E 029°17'0 0.0
2014-Aug-18 02:29N 40°51' E 029°17'0 0.0
2014-Aug-18 01:29N 40°51' E 029°17'0 0.0
2014-Aug-18 00:23N 40°51' E 029°17'0 0.0
2014-Aug-17 18:29N 40°51' E 029°17'0 0.0
2014-Aug-17 17:29N 40°51' E 029°17'0 0.0
2014-Aug-17 16:29N 40°51' E 029°17'0 0.0
2014-Aug-17 15:29N 40°51' E 029°17'0 0.0
2014-Aug-17 14:23N 40°51' E 029°17'0 0.0
2014-Aug-17 13:17N 40°51' E 029°17'0 0.0
2014-Aug-17 12:29N 40°51' E 029°17'0 0.0
2014-Aug-17 11:29N 40°51' E 029°17'0 0.0
2014-Aug-17 10:29N 40°51' E 029°17'0 0.0
2014-Aug-17 09:29N 40°51' E 029°17'0 0.0
2014-Aug-17 08:29N 40°51' E 029°17'0 0.0
2014-Aug-17 07:29N 40°51' E 029°17'0 0.0
2014-Aug-17 06:29N 40°51' E 029°17'0 0.0
2014-Aug-17 05:17N 40°51' E 029°17'0 0.0
2014-Aug-17 04:29N 40°51' E 029°17'0 0.0
2014-Aug-17 03:29N 40°51' E 029°17'0 0.0
2014-Aug-17 02:29N 40°51' E 029°17'0 0.0
2014-Aug-17 01:23N 40°51' E 029°17'0 0.0
2014-Aug-17 00:29N 40°51' E 029°17'0 0.0
2014-Aug-16 23:29N 40°51' E 029°17'0 0.0
2014-Aug-16 22:29N 40°51' E 029°17'0 0.0
2014-Aug-16 21:29N 40°51' E 029°17'0 0.0
2014-Aug-16 20:29N 40°51' E 029°17'0 0.0
2014-Aug-16 19:29N 40°51' E 029°17'0 0.0
2014-Aug-16 18:29N 40°51' E 029°17'0 0.0
2014-Aug-16 17:17N 40°51' E 029°17'0 0.0
2014-Aug-16 16:11N 40°51' E 029°17'0 0.0
2014-Aug-16 15:29N 40°51' E 029°17'0 0.0
2014-Aug-16 14:29N 40°51' E 029°17'0 0.0
2014-Aug-16 13:23N 40°51' E 029°17'0 0.0
2014-Aug-16 12:29N 40°51' E 029°17'0 0.0
2014-Aug-16 11:29N 40°51' E 029°17'0 0.0
2014-Aug-16 10:29N 40°51' E 029°17'0 0.0
2014-Aug-16 09:29N 40°51' E 029°17'0 0.0
2014-Aug-16 08:29N 40°51' E 029°17'0 0.0
2014-Aug-16 07:29N 40°51' E 029°17'0 0.0
2014-Aug-16 06:17N 40°51' E 029°17'0 0.0
2014-Aug-16 05:23N 40°51' E 029°17'0 0.0
2014-Aug-16 04:23N 40°51' E 029°17'0 0.0
2014-Aug-16 03:23N 40°51' E 029°17'0 0.0
2014-Aug-16 02:29N 40°51' E 029°17'0 0.0
2014-Aug-16 01:29N 40°51' E 029°17'0 0.0
2014-Aug-16 00:29N 40°51' E 029°17'0 0.0
2014-Aug-15 23:29N 40°51' E 029°17'0 0.0
2014-Aug-15 22:29N 40°51' E 029°17'0 0.0
2014-Aug-15 21:23N 40°51' E 029°17'0 0.0
2014-Aug-15 20:29N 40°51' E 029°17'0 0.0
2014-Aug-15 19:29N 40°51' E 029°17'0 0.0
2014-Aug-15 18:29N 40°51' E 029°17'0 0.0
2014-Aug-15 17:23N 40°51' E 029°17'0 0.0
2014-Aug-15 16:29N 40°51' E 029°17'0 0.0
2014-Aug-15 15:23N 40°51' E 029°17'0 0.0
2014-Aug-15 14:23N 40°51' E 029°17'0 0.0
2014-Aug-15 13:29N 40°51' E 029°17'0 0.0
2014-Aug-15 12:23N 40°51' E 029°17'  

Dump ship's entire track history